createdAt,value
2023-03-15T00:00:34.243Z,3.10
2023-03-15T00:05:36.222Z,3.40
2023-03-15T00:10:45.956Z,4.03
2023-03-15T00:15:50.217Z,3.80
2023-03-15T00:20:52.316Z,3.80
2023-03-15T00:25:54.709Z,3.63
2023-03-15T00:31:09.409Z,3.30
2023-03-15T00:36:12.177Z,3.50
2023-03-15T00:41:16.927Z,3.57
2023-03-15T00:46:19.324Z,4.27
2023-03-15T00:51:24.105Z,3.70
2023-03-15T00:56:27.812Z,3.60
2023-03-15T01:01:30.055Z,3.67
2023-03-15T01:06:31.859Z,3.50
2023-03-15T01:11:33.660Z,3.00
2023-03-15T01:16:35.714Z,3.50
2023-03-15T01:21:37.465Z,3.20
2023-03-15T01:26:39.163Z,3.30
2023-03-15T01:31:40.988Z,3.43
2023-03-15T01:36:42.830Z,3.80
2023-03-15T01:41:44.568Z,3.77
2023-03-15T01:46:46.444Z,4.00
2023-03-15T01:52:13.014Z,4.50
2023-03-15T01:57:25.416Z,4.07
2023-03-15T02:02:28.073Z,3.60
2023-03-15T02:07:34.636Z,4.10
2023-03-15T02:12:43.170Z,4.23
2023-03-15T02:17:47.143Z,3.63
2023-03-15T02:23:02.425Z,3.53
2023-03-15T02:28:07.577Z,3.70
2023-03-15T02:33:19.122Z,4.17
2023-03-15T02:38:22.665Z,4.40
2023-03-15T02:43:28.336Z,3.80
2023-03-15T02:48:34.113Z,4.10
2023-03-15T02:53:35.826Z,3.53
2023-03-15T02:58:37.557Z,3.50
2023-03-15T03:03:41.003Z,3.40
2023-03-15T03:08:46.993Z,3.20
2023-03-15T03:13:48.731Z,3.00
2023-03-15T03:18:51.344Z,3.40
2023-03-15T03:23:54.679Z,3.07
2023-03-15T03:28:56.411Z,3.40
2023-03-15T03:33:59.600Z,2.77
2023-03-15T03:39:01.770Z,2.80
2023-03-15T03:44:03.484Z,2.90
2023-03-15T03:49:05.213Z,3.43
2023-03-15T03:54:07.103Z,3.10
2023-03-15T03:59:08.852Z,2.93
2023-03-15T04:04:14.210Z,2.90
2023-03-15T04:09:16.634Z,3.20
2023-03-15T04:14:18.322Z,3.20
2023-03-15T04:19:20.232Z,3.00
2023-03-15T04:24:22.004Z,3.20
2023-03-15T04:29:23.788Z,3.47
2023-03-15T04:34:28.346Z,3.10
2023-03-15T04:39:30.245Z,3.40
2023-03-15T04:44:32.071Z,3.00
2023-03-15T04:49:33.793Z,3.80
2023-03-15T04:54:35.495Z,3.10
2023-03-15T04:59:37.191Z,3.50
2023-03-15T05:04:38.877Z,4.20
2023-03-15T05:09:40.565Z,4.30
2023-03-15T05:14:42.309Z,3.90
2023-03-15T05:19:44.068Z,3.97
2023-03-15T05:24:45.893Z,3.73
2023-03-15T05:29:47.926Z,4.27
2023-03-15T05:34:49.596Z,4.30
2023-03-15T05:39:51.958Z,3.87
2023-03-15T05:44:54.177Z,3.80
2023-03-15T05:49:55.902Z,3.83
2023-03-15T05:54:57.732Z,4.20
2023-03-15T05:59:59.519Z,5.20
2023-03-15T06:05:01.314Z,7.47
2023-03-15T06:10:03.587Z,7.80
2023-03-15T06:15:06.112Z,6.70
2023-03-15T06:20:08.826Z,5.17
2023-03-15T06:25:11.256Z,7.50
2023-03-15T06:30:15.912Z,6.23
2023-03-15T06:35:18.810Z,7.20
2023-03-15T06:40:20.622Z,7.03
2023-03-15T06:45:22.303Z,6.80
2023-03-15T06:50:26.145Z,7.20
2023-03-15T06:55:29.284Z,6.20
2023-03-15T07:00:31.172Z,6.00
2023-03-15T07:05:32.891Z,5.90
2023-03-15T07:10:34.737Z,5.60
2023-03-15T07:15:37.418Z,5.40
2023-03-15T07:20:39.196Z,5.20
2023-03-15T07:25:54.061Z,4.90
2023-03-15T07:31:01.884Z,3.70
2023-03-15T07:36:05.756Z,4.20
2023-03-15T07:41:08.176Z,4.10
2023-03-15T07:46:09.995Z,4.40
2023-03-15T07:51:11.911Z,4.40
2023-03-15T07:56:13.661Z,4.53
2023-03-15T08:01:15.368Z,4.23
2023-03-15T08:06:17.068Z,4.43
2023-03-15T08:11:18.825Z,3.60
2023-03-15T08:16:20.566Z,4.10
2023-03-15T08:21:22.339Z,3.73
2023-03-15T08:26:24.028Z,3.70
2023-03-15T08:31:25.791Z,3.53
2023-03-15T08:36:27.542Z,3.33
2023-03-15T08:41:29.402Z,3.20
2023-03-15T08:46:31.359Z,3.23
2023-03-15T08:51:33.701Z,3.10
2023-03-15T08:56:35.706Z,3.00
2023-03-15T09:01:40.077Z,3.17
2023-03-15T09:06:42.259Z,2.97
2023-03-15T09:11:43.937Z,3.13
2023-03-15T09:16:45.704Z,3.20
2023-03-15T09:21:47.497Z,2.90
2023-03-15T09:26:49.271Z,2.70
2023-03-15T09:31:51.018Z,2.50
2023-03-15T09:36:53.544Z,3.07
2023-03-15T09:41:58.755Z,2.60
2023-03-15T09:47:18.884Z,3.00
2023-03-15T09:52:26.427Z,2.87
2023-03-15T09:57:57.315Z,2.80
2023-03-15T10:03:02.250Z,2.80
2023-03-15T10:08:09.456Z,2.70
2023-03-15T10:13:36.562Z,2.67
2023-03-15T10:18:53.790Z,2.97
2023-03-15T10:23:55.603Z,2.60
2023-03-15T10:28:57.873Z,2.73
2023-03-15T10:33:59.657Z,3.00
2023-03-15T10:39:01.330Z,3.27
2023-03-15T10:44:10.112Z,3.00
2023-03-15T10:49:16.287Z,2.80
2023-03-15T10:54:25.470Z,3.17
2023-03-15T10:59:29.831Z,2.60
2023-03-15T11:04:33.812Z,2.90
2023-03-15T11:09:51.268Z,2.60
2023-03-15T11:14:59.032Z,2.67
2023-03-15T11:20:18.548Z,2.20
2023-03-15T11:25:24.981Z,2.60
2023-03-15T11:30:31.326Z,2.70
2023-03-15T11:35:38.744Z,2.70
2023-03-15T11:40:45.336Z,2.40
2023-03-15T11:45:57.896Z,2.67
2023-03-15T11:51:00.963Z,3.00
2023-03-15T11:56:24.785Z,2.83
2023-03-15T12:01:27.006Z,2.50
2023-03-15T12:06:37.743Z,2.30
2023-03-15T12:11:40.769Z,2.50
2023-03-15T12:16:45.609Z,2.60
2023-03-15T12:21:51.467Z,2.23
2023-03-15T12:27:03.360Z,2.30
2023-03-15T12:32:08.749Z,2.63
2023-03-15T12:37:15.682Z,2.40
2023-03-15T12:42:29.903Z,2.40
2023-03-15T12:47:44.291Z,2.47
2023-03-15T12:52:47.446Z,2.47
2023-03-15T12:57:53.896Z,2.43
2023-03-15T13:03:04.591Z,2.33
2023-03-15T13:08:45.501Z,2.40
2023-03-15T13:14:29.747Z,2.50
2023-03-15T13:19:41.852Z,2.50
2023-03-15T13:25:01.924Z,2.60
2023-03-15T13:30:28.101Z,2.57
2023-03-15T13:35:29.963Z,2.33
2023-03-15T13:40:31.650Z,2.60
2023-03-15T13:45:37.835Z,2.40
2023-03-15T13:50:39.660Z,2.33
2023-03-15T13:55:41.468Z,2.33
2023-03-15T14:00:43.225Z,2.37
2023-03-15T14:05:48.459Z,2.20
2023-03-15T14:11:18.242Z,2.47
2023-03-15T14:17:04.303Z,2.50
2023-03-15T14:22:17.692Z,2.37
2023-03-15T14:27:26.546Z,2.53
2023-03-15T14:32:36.927Z,2.40
2023-03-15T14:37:41.930Z,2.50
2023-03-15T14:42:44.990Z,2.70
2023-03-15T14:48:05.515Z,2.30
2023-03-15T14:53:08.910Z,2.40
2023-03-15T14:58:15.992Z,2.37
2023-03-15T15:03:23.858Z,2.10
2023-03-15T15:08:25.711Z,2.00
2023-03-15T15:13:29.336Z,2.00
2023-03-15T15:18:33.757Z,2.10
2023-03-15T15:23:54.843Z,2.13
2023-03-15T15:29:00.831Z,2.00
2023-03-15T15:34:02.782Z,2.00
2023-03-15T15:39:11.129Z,1.90
2023-03-15T15:44:16.990Z,2.10
2023-03-15T15:49:19.576Z,1.87
2023-03-15T15:54:26.288Z,1.80
2023-03-15T15:59:28.466Z,1.90
2023-03-15T16:04:30.881Z,1.90
2023-03-15T16:09:37.573Z,1.83
2023-03-15T16:14:39.468Z,1.80
2023-03-15T16:19:41.196Z,2.07
2023-03-15T16:24:45.495Z,1.90
2023-03-15T16:29:49.261Z,1.87
2023-03-15T16:34:52.881Z,2.20
2023-03-15T16:39:57.840Z,2.20
2023-03-15T16:44:59.629Z,2.47
2023-03-15T16:50:01.431Z,2.40
2023-03-15T16:55:03.976Z,2.40
2023-03-15T17:00:11.835Z,2.63
2023-03-15T17:05:19.009Z,2.30
2023-03-15T17:10:27.898Z,2.60
2023-03-15T17:15:30.598Z,2.50
2023-03-15T17:20:32.428Z,2.53
2023-03-15T17:25:34.532Z,2.90
2023-03-15T17:30:37.420Z,2.70
2023-03-15T17:35:53.970Z,2.90
2023-03-15T17:40:55.828Z,3.60
2023-03-15T17:45:57.661Z,3.10
2023-03-15T17:50:59.349Z,2.83
2023-03-15T17:56:01.029Z,2.70
2023-03-15T18:01:04.555Z,2.60
2023-03-15T18:06:06.735Z,2.93
2023-03-15T18:11:28.721Z,2.77
2023-03-15T18:16:31.945Z,2.90
2023-03-15T18:21:34.029Z,3.23
2023-03-15T18:26:35.794Z,3.50
2023-03-15T18:31:37.586Z,3.50
2023-03-15T18:36:39.262Z,4.47
2023-03-15T18:41:40.984Z,4.10
2023-03-15T18:46:45.844Z,4.93
2023-03-15T18:51:47.640Z,12.97
2023-03-15T18:56:50.051Z,20.93
2023-03-15T19:01:52.450Z,8.60
2023-03-15T19:06:54.305Z,7.13
2023-03-15T19:11:56.069Z,7.37
2023-03-15T19:16:58.311Z,7.57
2023-03-15T19:22:00.337Z,3.13
2023-03-15T19:27:03.191Z,2.70
2023-03-15T19:32:06.601Z,2.60
2023-03-15T19:37:08.398Z,6.23
2023-03-15T19:42:10.122Z,8.93
2023-03-15T19:47:11.849Z,8.47
2023-03-15T19:52:16.057Z,4.80
2023-03-15T19:57:17.954Z,4.43
2023-03-15T20:02:19.763Z,6.67
2023-03-15T20:07:21.514Z,5.23
2023-03-15T20:12:23.205Z,4.60
2023-03-15T20:17:26.911Z,6.13
2023-03-15T20:22:28.718Z,6.50
2023-03-15T20:27:33.263Z,5.20
2023-03-15T20:32:35.141Z,5.97
2023-03-15T20:37:40.414Z,5.20
2023-03-15T20:42:42.738Z,6.03
2023-03-15T20:47:44.566Z,5.80
2023-03-15T20:52:47.276Z,7.43
2023-03-15T20:57:49.048Z,5.83
2023-03-15T21:02:50.910Z,5.90
2023-03-15T21:07:53.981Z,4.57
2023-03-15T21:12:56.766Z,6.23
2023-03-15T21:17:58.454Z,5.80
2023-03-15T21:23:00.552Z,6.40
2023-03-15T21:28:02.278Z,4.07
2023-03-15T21:33:04.177Z,3.60
2023-03-15T21:38:05.890Z,3.90
2023-03-15T21:43:07.570Z,4.13
2023-03-15T21:48:09.639Z,4.00
2023-03-15T21:53:11.335Z,3.40
2023-03-15T21:58:13.090Z,3.53
2023-03-15T22:03:16.771Z,4.97
2023-03-15T22:08:18.566Z,4.67
2023-03-15T22:13:20.854Z,5.30
2023-03-15T22:18:22.675Z,5.33
2023-03-15T22:23:24.414Z,4.67
2023-03-15T22:28:26.209Z,4.30
2023-03-15T22:33:27.970Z,4.00
2023-03-15T22:38:29.967Z,3.73
2023-03-15T22:43:31.693Z,3.27
2023-03-15T22:48:33.701Z,3.30
2023-03-15T22:53:35.645Z,3.10
2023-03-15T22:58:37.952Z,3.10
2023-03-15T23:03:39.809Z,3.30
2023-03-15T23:08:42.588Z,2.90
2023-03-15T23:13:48.306Z,3.43
2023-03-15T23:18:50.067Z,3.53
2023-03-15T23:23:51.851Z,3.60
2023-03-15T23:28:54.758Z,3.57
2023-03-15T23:33:56.474Z,3.70
2023-03-15T23:38:58.271Z,3.33
2023-03-15T23:43:59.929Z,2.97
2023-03-15T23:49:03.865Z,2.70
2023-03-15T23:54:05.580Z,3.43
2023-03-15T23:59:07.383Z,3.93
